Time;durP1;ratioP1;P1;durP2;ratioP2;P2;SDS_P1;SDS_P2;PMS_P1;PMS_P2;Temp;Humidity;BMP_temperature;BMP_pressure;BME280_temperature;BME280_humidity;BME280_pressure;Samples;Min_cycle;Max_cycle;Signal;HPM_P1;HPM_P2
2021/10/21 19:02:05;;;;;;;11.48;4.45;;;;;;;;;;5149469;27;20680;-88
2021/10/21 19:05:03;;;;;;;22.30;5.05;;;;;;;;;;5118093;27;20043;-89
2021/10/21 19:07:34;;;;;;;30.37;13.20;;;;;;;;;;5119380;27;20054;-87
2021/10/21 19:10:02;;;;;;;14.40;9.75;;;;;;;;;;5121575;27;20131;-90
2021/10/21 19:12:43;;;;;;;9.57;3.88;;;;;;;;;;5125452;27;20638;-89
2021/10/21 19:15:14;;;;;;;9.75;3.45;;;;;;;;;;5124793;27;20420;-88
2021/10/21 19:17:58;;;;;;;7.68;3.03;;;;;;;;;;5123856;27;20485;-89
2021/10/21 19:21:00;;;;;;;4.90;3.35;;;;;;;;;;5124811;27;20043;-89
2021/10/21 19:23:33;;;;;;;7.07;3.28;;;;;;;;;;5119564;27;20060;-89
2021/10/21 19:26:05;;;;;;;10.82;3.92;;;;;;;;;;5131125;27;20134;-88
2021/10/21 19:28:33;;;;;;;9.23;4.53;;;;;;;;;;5130856;27;20039;-87
2021/10/21 19:31:02;;;;;;;7.97;4.82;;;;;;;;;;5121922;28;20071;-88
2021/10/21 19:33:31;;;;;;;9.38;5.47;;;;;;;;;;5122345;27;20092;-85
2021/10/21 19:36:01;;;;;;;10.20;5.38;;;;;;;;;;5125399;27;20569;-85
2021/10/21 19:38:29;;;;;;;10.38;4.40;;;;;;;;;;5120760;27;20055;-85
2021/10/21 19:40:56;;;;;;;12.40;4.90;;;;;;;;;;5120082;27;20043;-84
2021/10/21 19:43:24;;;;;;;8.50;3.33;;;;;;;;;;5123486;27;20127;-85
2021/10/21 19:45:51;;;;;;;8.70;3.08;;;;;;;;;;5126546;28;20407;-84
2021/10/21 19:48:19;;;;;;;7.65;3.53;;;;;;;;;;5124670;27;20040;-84
2021/10/21 19:50:47;;;;;;;8.13;4.00;;;;;;;;;;5121701;27;20134;-84
2021/10/21 19:53:15;;;;;;;10.32;3.53;;;;;;;;;;5121204;27;20047;-84
2021/10/21 19:55:42;;;;;;;15.77;3.50;;;;;;;;;;5126530;27;20112;-84
2021/10/21 19:58:10;;;;;;;7.88;3.42;;;;;;;;;;5119136;28;20156;-84
2021/10/21 20:00:40;;;;;;;12.18;3.30;;;;;;;;;;5113421;27;20549;-85
2021/10/21 20:03:07;;;;;;;9.18;3.05;;;;;;;;;;5121569;27;20054;-84
2021/10/21 20:05:34;;;;;;;12.70;3.05;;;;;;;;;;5125656;27;20035;-85
2021/10/21 20:11:15;;;;;;;10.05;2.80;;;;;;;;;;5123408;27;20051;-85
2021/10/21 20:13:42;;;;;;;17.52;4.97;;;;;;;;;;5122419;28;20039;-86
2021/10/21 20:16:13;;;;;;;15.90;5.88;;;;;;;;;;5133679;28;20039;-86
2021/10/21 20:18:41;;;;;;;20.00;8.13;;;;;;;;;;5128685;28;20063;-89
2021/10/21 20:21:08;;;;;;;16.48;6.53;;;;;;;;;;5121022;28;20040;-88
2021/10/21 20:23:37;;;;;;;21.95;6.70;;;;;;;;;;5105187;28;20320;-88
2021/10/21 20:26:05;;;;;;;13.57;4.80;;;;;;;;;;5103283;27;20044;-88
2021/10/21 20:28:33;;;;;;;23.45;6.22;;;;;;;;;;5114452;28;20063;-88
2021/10/21 20:31:01;;;;;;;15.82;6.45;;;;;;;;;;5109166;28;20047;-88
2021/10/21 20:33:32;;;;;;;12.30;6.28;;;;;;;;;;5104282;28;20063;-88
2021/10/21 20:36:03;;;;;;;16.38;5.85;;;;;;;;;;5109962;28;20058;-87
2021/10/21 20:38:30;;;;;;;20.08;6.47;;;;;;;;;;5110997;28;20437;-88
2021/10/21 20:40:59;;;;;;;15.30;6.82;;;;;;;;;;5110093;28;20143;-88
2021/10/21 20:43:27;;;;;;;20.48;6.38;;;;;;;;;;5101837;28;20044;-88
2021/10/21 20:45:55;;;;;;;16.45;5.93;;;;;;;;;;5111092;28;20084;-87
2021/10/21 20:48:22;;;;;;;15.77;5.88;;;;;;;;;;5115873;27;20031;-87
2021/10/21 20:50:51;;;;;;;13.00;5.07;;;;;;;;;;5115353;27;20039;-88
2021/10/21 20:53:18;;;;;;;16.88;4.97;;;;;;;;;;5103520;28;20035;-87
2021/10/21 20:55:45;;;;;;;15.95;6.05;;;;;;;;;;5107818;28;20036;-87
2021/10/21 20:58:15;;;;;;;16.42;6.03;;;;;;;;;;5113035;28;20100;-87
2021/10/21 21:00:43;;;;;;;17.90;5.85;;;;;;;;;;5113572;27;20330;-87
2021/10/21 21:03:11;;;;;;;21.50;6.97;;;;;;;;;;5111337;28;20076;-87
2021/10/21 21:05:40;;;;;;;14.15;7.15;;;;;;;;;;5109340;28;20412;-88
2021/10/21 21:08:08;;;;;;;16.00;7.45;;;;;;;;;;5112229;28;20051;-88
2021/10/21 21:10:35;;;;;;;16.70;6.93;;;;;;;;;;5110939;28;20044;-88
2021/10/21 21:13:05;;;;;;;14.98;6.85;;;;;;;;;;5113402;28;20421;-87
2021/10/21 21:15:34;;;;;;;21.15;6.70;;;;;;;;;;5123733;27;20039;-86
2021/10/21 21:18:01;;;;;;;21.33;7.60;;;;;;;;;;5134604;28;20054;-88
2021/10/21 21:20:29;;;;;;;20.95;6.78;;;;;;;;;;5136157;28;20019;-87
2021/10/21 21:22:57;;;;;;;22.88;7.32;;;;;;;;;;5135698;28;20032;-89
2021/10/21 21:25:24;;;;;;;14.50;6.35;;;;;;;;;;5132874;27;20027;-87
2021/10/21 21:27:51;;;;;;;17.65;7.18;;;;;;;;;;5126561;28;20039;-87
2021/10/21 21:30:19;;;;;;;18.10;6.65;;;;;;;;;;5105654;27;20145;-88
